createdAt,value
2018-12-06T00:03:45.142Z,8.57
2018-12-06T00:08:49.780Z,8.23
2018-12-06T00:13:53.338Z,8.53
2018-12-06T00:19:09.144Z,7.90
2018-12-06T00:24:12.843Z,8.20
2018-12-06T00:29:16.411Z,8.83
2018-12-06T00:34:20.010Z,8.43
2018-12-06T00:39:23.506Z,8.37
2018-12-06T00:44:27.233Z,8.70
2018-12-06T00:49:31.079Z,8.33
2018-12-06T00:54:34.593Z,8.40
2018-12-06T00:59:38.260Z,8.67
2018-12-06T01:04:41.788Z,7.80
2018-12-06T01:09:45.376Z,8.67
2018-12-06T01:14:48.791Z,7.97
2018-12-06T01:19:52.250Z,8.03
2018-12-06T01:24:55.867Z,9.17
2018-12-06T01:29:59.413Z,9.23
2018-12-06T01:35:03.191Z,8.60
2018-12-06T01:40:06.838Z,8.33
2018-12-06T01:45:10.705Z,8.17
2018-12-06T01:50:14.178Z,8.27
2018-12-06T01:55:19.854Z,8.73
2018-12-06T02:00:23.583Z,9.63
2018-12-06T02:05:27.095Z,8.23
2018-12-06T02:10:30.611Z,8.87
2018-12-06T02:15:34.242Z,9.17
2018-12-06T02:20:37.839Z,9.33
2018-12-06T02:25:41.270Z,8.87
2018-12-06T02:30:44.947Z,9.50
2018-12-06T02:35:48.439Z,9.47
2018-12-06T02:40:51.922Z,9.47
2018-12-06T02:45:55.503Z,10.13
2018-12-06T02:50:59.361Z,11.17
2018-12-06T02:56:02.803Z,10.00
2018-12-06T03:01:06.900Z,11.87
2018-12-06T03:06:10.526Z,11.13
2018-12-06T03:11:14.152Z,10.53
2018-12-06T03:16:17.913Z,11.33
2018-12-06T03:21:21.640Z,10.93
2018-12-06T03:26:25.381Z,12.23
2018-12-06T03:31:28.948Z,11.50
2018-12-06T03:36:32.487Z,12.17
2018-12-06T03:41:36.045Z,12.00
2018-12-06T03:46:39.521Z,12.30
2018-12-06T03:51:43.004Z,12.00
2018-12-06T03:56:46.540Z,12.90
2018-12-06T04:01:50.076Z,12.53
2018-12-06T04:06:53.601Z,12.53
2018-12-06T04:11:57.111Z,12.43
2018-12-06T04:17:00.570Z,13.77
2018-12-06T04:22:04.116Z,13.70
2018-12-06T04:27:07.663Z,14.30
2018-12-06T04:32:11.234Z,14.43
2018-12-06T04:37:14.672Z,15.10
2018-12-06T04:42:18.274Z,15.43
2018-12-06T04:47:21.980Z,16.13
2018-12-06T04:52:25.422Z,16.27
2018-12-06T04:57:28.895Z,16.23
2018-12-06T05:02:32.371Z,16.00
2018-12-06T05:07:35.846Z,16.40
2018-12-06T05:12:39.437Z,16.20
2018-12-06T05:17:42.996Z,16.53
2018-12-06T05:22:46.481Z,17.27
2018-12-06T05:27:49.970Z,18.00
2018-12-06T05:32:53.472Z,17.80
2018-12-06T05:37:57.005Z,19.53
2018-12-06T05:43:00.495Z,18.50
2018-12-06T05:48:04.005Z,18.13
2018-12-06T05:53:07.377Z,19.03
2018-12-06T05:58:10.786Z,17.67
2018-12-06T06:03:14.375Z,18.77
2018-12-06T06:08:17.974Z,17.93
2018-12-06T06:13:21.547Z,19.10
2018-12-06T06:18:24.999Z,19.07
2018-12-06T06:23:28.503Z,20.00
2018-12-06T06:28:32.451Z,19.90
2018-12-06T06:33:35.955Z,20.17
2018-12-06T06:38:39.565Z,20.30
2018-12-06T06:43:43.049Z,22.50
2018-12-06T06:48:46.467Z,23.00
2018-12-06T06:53:49.877Z,24.40
2018-12-06T06:58:53.936Z,23.43
2018-12-06T07:03:57.811Z,24.13
2018-12-06T07:09:01.545Z,22.93
2018-12-06T07:14:06.393Z,24.43
2018-12-06T07:19:10.001Z,24.37
2018-12-06T07:24:13.489Z,25.77
2018-12-06T07:29:17.182Z,26.17
2018-12-06T07:34:20.767Z,25.60
2018-12-06T07:39:24.343Z,28.70
2018-12-06T07:44:27.845Z,33.47
2018-12-06T07:49:31.617Z,34.93
2018-12-06T07:54:35.179Z,36.33
2018-12-06T07:59:38.864Z,37.80
2018-12-06T08:04:43.015Z,38.73
2018-12-06T08:09:46.985Z,39.40
2018-12-06T08:14:50.603Z,40.03
2018-12-06T08:19:54.190Z,39.17
2018-12-06T08:24:57.714Z,40.23
2018-12-06T08:30:01.274Z,38.73
2018-12-06T08:35:05.643Z,38.20
2018-12-06T08:40:09.867Z,36.77
2018-12-06T08:45:13.415Z,36.13
2018-12-06T08:50:16.896Z,35.33
2018-12-06T08:55:20.419Z,35.90
2018-12-06T09:00:23.992Z,34.77
2018-12-06T09:05:27.527Z,34.47
2018-12-06T09:10:31.092Z,34.90
2018-12-06T09:15:34.658Z,34.77
2018-12-06T09:20:38.074Z,36.60
2018-12-06T09:25:42.114Z,36.67
2018-12-06T09:30:45.717Z,36.40
2018-12-06T09:35:49.204Z,35.13
2018-12-06T09:40:52.932Z,36.73
2018-12-06T09:45:56.430Z,36.90
2018-12-06T09:50:59.989Z,38.53
2018-12-06T09:56:03.905Z,39.30
2018-12-06T10:01:07.363Z,39.03
2018-12-06T10:06:10.847Z,38.97
2018-12-06T10:11:14.943Z,39.00
2018-12-06T10:16:18.602Z,38.77
2018-12-06T10:21:22.218Z,39.83
2018-12-06T10:26:26.380Z,39.53
2018-12-06T10:31:30.079Z,38.20
2018-12-06T10:36:33.620Z,40.30
2018-12-06T10:41:37.529Z,41.87
2018-12-06T10:46:41.315Z,40.47
2018-12-06T10:51:44.958Z,41.43
2018-12-06T10:56:49.160Z,39.53
2018-12-06T11:01:58.118Z,41.30
2018-12-06T11:07:03.180Z,40.83
2018-12-06T11:12:40.906Z,41.60
2018-12-06T11:17:44.602Z,40.73
2018-12-06T11:22:48.131Z,39.23
2018-12-06T11:27:51.803Z,38.80
2018-12-06T11:32:56.312Z,38.57
2018-12-06T11:37:59.997Z,38.90
2018-12-06T11:43:03.499Z,38.90
2018-12-06T11:48:06.989Z,39.73
2018-12-06T11:53:10.633Z,39.87
2018-12-06T11:58:14.110Z,39.93
2018-12-06T12:03:17.738Z,38.70
2018-12-06T12:08:21.330Z,40.93
2018-12-06T12:13:24.783Z,42.53
2018-12-06T12:18:28.316Z,40.43
2018-12-06T12:23:33.132Z,43.93
2018-12-06T12:28:36.825Z,41.57
2018-12-06T12:33:40.322Z,41.73
2018-12-06T12:38:43.897Z,38.97
2018-12-06T12:43:48.928Z,40.03
2018-12-06T12:48:52.764Z,38.67
2018-12-06T12:53:57.276Z,40.20
2018-12-06T12:59:00.750Z,39.23
2018-12-06T13:04:04.526Z,41.40
2018-12-06T13:09:08.700Z,43.67
2018-12-06T13:14:12.314Z,42.10
2018-12-06T13:19:16.002Z,43.30
2018-12-06T13:24:19.548Z,40.03
2018-12-06T13:29:23.109Z,38.53
2018-12-06T13:34:26.838Z,41.17
2018-12-06T13:39:30.389Z,40.67
2018-12-06T13:44:34.198Z,39.37
2018-12-06T13:49:37.706Z,38.20
2018-12-06T13:54:41.214Z,39.03
2018-12-06T13:59:44.720Z,40.07
2018-12-06T14:04:48.482Z,38.87
2018-12-06T14:09:52.502Z,38.07
2018-12-06T14:14:56.112Z,43.60
2018-12-06T14:19:59.722Z,42.63
2018-12-06T14:25:03.919Z,43.90
2018-12-06T14:30:08.149Z,44.60
2018-12-06T14:35:11.895Z,45.50
2018-12-06T14:40:15.618Z,45.93
2018-12-06T14:45:19.337Z,45.07
2018-12-06T14:50:23.060Z,46.40
2018-12-06T14:55:26.549Z,47.87
2018-12-06T15:00:30.001Z,45.43
2018-12-06T15:05:33.619Z,47.13
2018-12-06T15:10:37.129Z,44.47
2018-12-06T15:15:40.772Z,41.30
2018-12-06T15:20:44.205Z,42.97
2018-12-06T15:25:47.770Z,42.83
2018-12-06T15:30:51.214Z,42.23
2018-12-06T15:35:54.895Z,41.03
2018-12-06T15:40:58.615Z,42.67
2018-12-06T15:46:02.185Z,39.03
2018-12-06T15:51:05.901Z,38.53
2018-12-06T15:56:11.081Z,37.63
2018-12-06T16:01:14.830Z,36.70
2018-12-06T16:06:18.341Z,34.97
2018-12-06T16:11:21.938Z,35.63
2018-12-06T16:16:25.540Z,35.13
2018-12-06T16:21:29.103Z,33.97
2018-12-06T16:26:32.529Z,33.53
2018-12-06T16:31:36.385Z,34.47
2018-12-06T16:36:40.025Z,33.33
2018-12-06T16:41:44.145Z,32.30
2018-12-06T16:46:47.918Z,33.93
2018-12-06T16:51:51.386Z,35.00
2018-12-06T16:56:55.002Z,35.03
2018-12-06T17:01:58.431Z,36.27
2018-12-06T17:07:01.915Z,35.73
2018-12-06T17:12:06.679Z,34.30
2018-12-06T17:17:10.570Z,35.10
2018-12-06T17:22:14.419Z,34.33
2018-12-06T17:27:18.243Z,32.93
2018-12-06T17:32:22.006Z,32.27
2018-12-06T17:37:26.184Z,32.67
2018-12-06T17:42:29.715Z,32.13
2018-12-06T17:47:33.331Z,32.87
2018-12-06T17:52:37.071Z,33.47
2018-12-06T17:57:40.892Z,31.53
2018-12-06T18:02:44.317Z,34.33
2018-12-06T18:07:48.351Z,33.00
2018-12-06T18:12:52.678Z,34.27
2018-12-06T18:17:56.255Z,35.00
2018-12-06T18:22:59.794Z,35.67
2018-12-06T18:28:03.538Z,35.70
2018-12-06T18:33:07.320Z,38.47
2018-12-06T18:38:11.041Z,37.70
2018-12-06T18:43:14.680Z,38.17
2018-12-06T18:48:18.360Z,39.03
2018-12-06T18:53:21.828Z,39.70
2018-12-06T18:58:26.434Z,39.53
2018-12-06T19:03:30.054Z,41.17
2018-12-06T19:08:33.641Z,42.67
2018-12-06T19:13:37.242Z,43.57
2018-12-06T19:18:40.939Z,44.77
2018-12-06T19:23:44.407Z,45.60
2018-12-06T19:28:48.016Z,43.43
2018-12-06T19:33:51.624Z,45.30
2018-12-06T19:38:55.310Z,43.60
2018-12-06T19:43:58.924Z,43.73
2018-12-06T19:49:02.589Z,42.23
2018-12-06T19:54:06.564Z,40.33
2018-12-06T19:59:10.023Z,39.00
2018-12-06T20:04:13.533Z,37.10
2018-12-06T20:09:17.021Z,38.07
2018-12-06T20:14:20.515Z,36.67
2018-12-06T20:19:24.002Z,36.30
2018-12-06T20:24:27.629Z,36.53
2018-12-06T20:29:31.346Z,39.07
2018-12-06T20:34:34.846Z,40.07
2018-12-06T20:44:51.684Z,40.20
2018-12-06T20:49:55.346Z,43.30
2018-12-06T20:54:59.878Z,42.30
2018-12-06T21:00:04.468Z,41.33
2018-12-06T21:05:08.130Z,42.20
2018-12-06T21:10:11.657Z,42.67
2018-12-06T21:15:15.348Z,43.47
2018-12-06T21:20:18.959Z,43.20
2018-12-06T21:25:22.670Z,40.90
2018-12-06T21:30:26.189Z,41.70
2018-12-06T21:35:29.846Z,40.60
2018-12-06T21:40:34.528Z,43.43
2018-12-06T21:45:38.313Z,40.87
2018-12-06T21:50:41.975Z,42.53
2018-12-06T21:55:45.466Z,44.13
2018-12-06T22:00:49.115Z,43.53
2018-12-06T22:05:52.721Z,45.00
2018-12-06T22:10:56.623Z,51.63
2018-12-06T22:16:00.373Z,45.70
2018-12-06T22:21:04.200Z,44.57
2018-12-06T22:26:07.866Z,40.90
2018-12-06T22:31:11.510Z,37.47
2018-12-06T22:36:15.100Z,35.33
2018-12-06T22:46:32.142Z,41.03
2018-12-06T22:51:35.842Z,39.17
2018-12-06T22:56:39.620Z,40.00
2018-12-06T23:01:43.757Z,39.57
2018-12-06T23:06:47.477Z,41.90
2018-12-06T23:11:51.119Z,39.83
2018-12-06T23:16:54.774Z,41.23
2018-12-06T23:21:58.294Z,39.60
2018-12-06T23:27:01.918Z,38.07
2018-12-06T23:32:05.842Z,38.53
2018-12-06T23:37:09.496Z,36.73
2018-12-06T23:42:13.047Z,38.17
2018-12-06T23:47:16.734Z,37.60
2018-12-06T23:52:20.269Z,37.87
2018-12-06T23:57:23.786Z,37.23
